LTBJ/ADB METAR and TAF weather

Enter ICAO airport designator
Station Type Date Time Source
LTBJ METAR 2020/02/19 11:20 UTC NOAA

LTBJ 191120Z 16005KT 130V210 9999 FEW030 16/06 Q1017 NOSIG


Station Type Date Time Source
LTBJ Decoded METAR 2020/02/19 11:20 UTC NOAA

Izmir / Adnan Menderes, Turkey (LTBJ) 38-16N 027-09E 120M
Feb 19, 2020 - 06:20 AM EST / 2020.02.19 1120 UTC
Wind: from the SSE (160 degrees) at 6 MPH (5 KT) (direction variable):0
Visibility: greater than 7 mile(s):0
Sky conditions: mostly clear
Temperature: 60 F (16 C)
Dew Point: 42 F (6 C)
Relative Humidity: 51%
Pressure (altimeter): 30.03 in. Hg (1017 hPa)
ob: LTBJ 191120Z 16005KT 130V210 9999 FEW030 16/06 Q1017 NOSIG
cycle: 11

Station Type Date Time Source
LTBJ TAF 2020/02/19 12:03 UTC NOAA

TAF LTBJ 191040Z 1912/2012 VRB02KT 9999 FEW030
BECMG 1923/2001 BKN030 BKN100
TEMPO 2002/2006 4000 -SHRA BR

Example: see airport list